Time;durP1;ratioP1;P1;durP2;ratioP2;P2;SDS_P1;SDS_P2;PMS_P1;PMS_P2;Temp;Humidity;BMP_temperature;BMP_pressure;BME280_temperature;BME280_humidity;BME280_pressure;Samples;Min_cycle;Max_cycle;Signal;HPM_P1;HPM_P2
2021/04/24 00:01:35;;;;;;;5.32;2.88;;;20.00;39.40;;;;;;5034209;28;20086;-56
2021/04/24 00:04:01;;;;;;;6.20;2.55;;;20.00;39.40;;;;;;5034500;28;20329;-57
2021/04/24 00:06:27;;;;;;;4.25;3.00;;;20.00;40.00;;;;;;5034486;28;20018;-57
2021/04/24 00:08:53;;;;;;;3.63;2.65;;;19.90;39.30;;;;;;5034401;28;20025;-56
2021/04/24 00:11:20;;;;;;;5.20;2.53;;;19.90;39.30;;;;;;5034801;28;20037;-57
2021/04/24 00:13:45;;;;;;;4.63;2.42;;;19.90;39.30;;;;;;5034074;28;20039;-57
2021/04/24 00:16:11;;;;;;;2.85;2.30;;;19.90;39.20;;;;;;5034375;28;20436;-56
2021/04/24 00:18:37;;;;;;;3.88;2.90;;;19.90;39.20;;;;;;5034017;28;20025;-54
2021/04/24 00:21:04;;;;;;;4.88;2.88;;;19.90;39.20;;;;;;5034204;28;20029;-57
2021/04/24 00:23:30;;;;;;;3.08;2.42;;;19.90;39.20;;;;;;5034381;28;20041;-57
2021/04/24 00:25:56;;;;;;;2.70;2.45;;;19.90;39.20;;;;;;5034582;28;20376;-57
2021/04/24 00:28:22;;;;;;;4.40;2.40;;;19.90;39.20;;;;;;5034301;28;20057;-58
2021/04/24 00:30:47;;;;;;;4.03;2.50;;;19.90;39.20;;;;;;5035854;28;20064;-56
2021/04/24 00:33:13;;;;;;;5.45;2.60;;;19.90;39.20;;;;;;5038309;28;20120;-56
2021/04/24 00:35:38;;;;;;;3.28;2.40;;;19.80;39.20;;;;;;5037803;28;20607;-54
2021/04/24 00:38:04;;;;;;;3.35;2.58;;;19.90;39.20;;;;;;5037719;28;20040;-56
2021/04/24 00:40:30;;;;;;;3.45;2.50;;;19.80;39.10;;;;;;5037546;28;20026;-58
2021/04/24 00:42:55;;;;;;;4.00;2.35;;;19.80;39.10;;;;;;5037384;28;20037;-59
2021/04/24 00:45:23;;;;;;;3.47;2.72;;;19.80;39.10;;;;;;5038037;28;20104;-54
2021/04/24 00:47:50;;;;;;;3.40;2.45;;;19.80;39.20;;;;;;5037230;28;20021;-57
2021/04/24 00:50:19;;;;;;;3.30;2.20;;;19.80;39.10;;;;;;5037352;28;20036;-57
2021/04/24 00:52:45;;;;;;;3.33;2.45;;;19.80;39.10;;;;;;5037328;28;20034;-56
2021/04/24 00:55:11;;;;;;;2.97;2.45;;;19.80;39.10;;;;;;5037416;28;20030;-56
2021/04/24 00:57:37;;;;;;;4.70;2.30;;;19.80;39.10;;;;;;5037379;28;20456;-57
2021/04/24 01:00:06;;;;;;;3.15;2.42;;;19.80;39.10;;;;;;5037130;28;20029;-54
2021/04/24 01:02:31;;;;;;;2.90;2.60;;;19.80;39.10;;;;;;5037220;28;20021;-55
2021/04/24 01:04:57;;;;;;;3.80;2.42;;;19.70;39.00;;;;;;5037134;28;20091;-54
2021/04/24 01:07:22;;;;;;;4.13;2.78;;;19.70;39.00;;;;;;5037355;28;20022;-57
2021/04/24 01:09:48;;;;;;;2.40;2.20;;;19.70;39.00;;;;;;5037080;28;20044;-56
2021/04/24 01:12:13;;;;;;;3.58;2.28;;;19.70;39.00;;;;;;5036828;28;20043;-58
2021/04/24 01:14:39;;;;;;;2.35;2.15;;;19.70;39.00;;;;;;5036910;28;20025;-53
2021/04/24 01:17:05;;;;;;;2.97;2.60;;;19.70;39.00;;;;;;5036899;28;20025;-56
2021/04/24 01:19:31;;;;;;;4.30;2.75;;;19.70;39.00;;;;;;5036935;28;20025;-55
2021/04/24 01:22:07;;;;;;;3.33;2.30;;;19.70;39.00;;;;;;5036901;28;20025;-56
2021/04/24 01:24:33;;;;;;;2.72;2.30;;;19.70;39.00;;;;;;5036645;28;20026;-56
2021/04/24 01:26:59;;;;;;;3.45;2.33;;;19.70;39.00;;;;;;5018957;28;20068;-55
2021/04/24 01:29:25;;;;;;;2.78;2.38;;;19.70;39.00;;;;;;5036795;28;20068;-56
2021/04/24 01:31:50;;;;;;;3.35;2.50;;;19.70;39.00;;;;;;5036302;28;20025;-57
2021/04/24 01:34:16;;;;;;;3.15;2.28;;;19.60;38.90;;;;;;5036685;28;20026;-56
2021/04/24 01:36:42;;;;;;;7.22;2.75;;;19.60;38.90;;;;;;5036336;28;20075;-54
2021/04/24 01:39:07;;;;;;;3.13;2.30;;;19.60;39.60;;;;;;5019144;28;20025;-56
2021/04/24 01:41:33;;;;;;;3.58;2.58;;;19.60;38.90;;;;;;5035469;28;20022;-56
2021/04/24 01:43:59;;;;;;;3.50;2.65;;;19.60;38.90;;;;;;5036027;28;20095;-55
2021/04/24 01:46:25;;;;;;;3.97;2.83;;;19.60;38.90;;;;;;5036757;28;20026;-56
2021/04/24 01:48:51;;;;;;;3.28;2.00;;;19.60;38.90;;;;;;5036428;28;20033;-54
2021/04/24 01:51:17;;;;;;;3.20;2.20;;;19.60;38.90;;;;;;5036407;28;20064;-57
2021/04/24 01:53:43;;;;;;;4.65;2.75;;;19.60;38.90;;;;;;5035873;28;20466;-53
2021/04/24 01:56:09;;;;;;;4.15;2.38;;;19.60;38.90;;;;;;5036091;28;20033;-56
2021/04/24 01:58:35;;;;;;;3.17;2.65;;;19.60;38.90;;;;;;5036389;28;20056;-57
2021/04/24 02:01:05;;;;;;;3.25;2.10;;;19.60;38.90;;;;;;5036206;28;20060;-57
2021/04/24 02:03:31;;;;;;;4.40;3.03;;;19.60;38.80;;;;;;5036020;28;20025;-53
2021/04/24 02:05:57;;;;;;;2.45;2.17;;;19.50;38.80;;;;;;5035749;28;20524;-58
2021/04/24 02:08:38;;;;;;;3.70;2.35;;;19.50;39.00;;;;;;5035425;28;20112;-57
2021/04/24 02:11:05;;;;;;;4.13;2.60;;;19.50;38.80;;;;;;5036054;28;20033;-55
2021/04/24 02:13:34;;;;;;;4.78;2.85;;;19.50;38.80;;;;;;5035993;28;20040;-57
2021/04/24 02:15:59;;;;;;;4.28;2.63;;;19.50;38.80;;;;;;5035674;28;20042;-56
2021/04/24 02:18:26;;;;;;;3.63;2.40;;;19.50;38.80;;;;;;5036164;28;20041;-55
2021/04/24 02:20:52;;;;;;;2.88;2.42;;;19.40;38.70;;;;;;5035906;28;20029;-57
2021/04/24 02:23:18;;;;;;;4.47;2.40;;;19.50;38.80;;;;;;5035331;28;20022;-57
2021/04/24 02:25:45;;;;;;;5.47;2.35;;;19.50;38.80;;;;;;5035693;28;20383;-56
2021/04/24 02:28:11;;;;;;;3.03;2.28;;;19.40;39.40;;;;;;5035960;28;20035;-57
2021/04/24 02:30:37;;;;;;;3.38;2.58;;;19.40;38.70;;;;;;5035611;28;20025;-55
2021/04/24 02:33:04;;;;;;;2.63;2.20;;;19.50;38.80;;;;;;5035882;28;20335;-56
2021/04/24 02:35:47;;;;;;;3.38;2.40;;;19.40;38.70;;;;;;5017784;28;20045;-56
2021/04/24 02:38:17;;;;;;;2.88;2.30;;;19.40;38.70;;;;;;5035521;28;20013;-55
2021/04/24 02:40:43;;;;;;;3.30;2.30;;;19.40;38.70;;;;;;5035370;28;20359;-56
2021/04/24 02:43:10;;;;;;;4.05;2.45;;;19.40;38.70;;;;;;5035354;28;20117;-58
2021/04/24 02:45:36;;;;;;;2.50;2.30;;;19.40;38.70;;;;;;5035752;28;20060;-56
2021/04/24 02:48:02;;;;;;;3.05;2.47;;;19.40;38.70;;;;;;5035286;28;20037;-56
2021/04/24 02:50:28;;;;;;;2.45;2.10;;;19.40;38.70;;;;;;5017720;28;20364;-55
2021/04/24 02:52:54;;;;;;;4.15;2.95;;;19.40;38.70;;;;;;5035003;28;20033;-56
2021/04/24 02:55:20;;;;;;;2.83;2.17;;;19.40;38.70;;;;;;5035381;28;20025;-56
2021/04/24 02:57:46;;;;;;;2.72;2.13;;;19.40;38.70;;;;;;5035134;28;20408;-57
2021/04/24 03:00:15;;;;;;;2.95;2.40;;;19.30;38.70;;;;;;5017427;28;20026;-57
2021/04/24 03:02:41;;;;;;;2.72;2.17;;;19.40;38.70;;;;;;5034713;28;20052;-57
2021/04/24 03:05:17;;;;;;;2.53;2.33;;;19.30;38.70;;;;;;5034884;28;20123;-55
2021/04/24 03:07:44;;;;;;;3.67;2.38;;;19.30;38.60;;;;;;5035038;28;20041;-55
2021/04/24 03:10:11;;;;;;;2.47;2.28;;;19.30;38.60;;;;;;5035007;28;20453;-56
2021/04/24 03:12:37;;;;;;;3.63;2.35;;;19.30;38.60;;;;;;5034860;28;20029;-56
2021/04/24 03:15:05;;;;;;;3.97;2.50;;;19.30;38.60;;;;;;5034687;28;20033;-59
2021/04/24 03:17:31;;;;;;;2.70;2.42;;;19.30;38.70;;;;;;5017480;28;20398;-58
2021/04/24 03:19:56;;;;;;;2.97;2.60;;;19.30;38.70;;;;;;5034861;28;20025;-54
2021/04/24 03:22:22;;;;;;;2.90;2.30;;;19.30;38.70;;;;;;5035083;28;20052;-55
2021/04/24 03:24:48;;;;;;;3.20;2.40;;;19.30;38.70;;;;;;5034663;28;20093;-56
2021/04/24 03:27:13;;;;;;;3.05;2.30;;;19.30;38.70;;;;;;5034957;28;20332;-58
2021/04/24 03:29:39;;;;;;;2.85;2.17;;;19.30;38.70;;;;;;5034819;28;20411;-56
2021/04/24 03:32:05;;;;;;;4.03;2.60;;;19.30;38.70;;;;;;5034467;28;20189;-52
2021/04/24 03:34:30;;;;;;;8.70;2.70;;;19.30;38.60;;;;;;5034735;28;20120;-54
2021/04/24 03:36:56;;;;;;;3.75;2.22;;;19.20;39.00;;;;;;5034908;28;20407;-56
2021/04/24 03:39:22;;;;;;;3.55;2.78;;;19.20;38.90;;;;;;5034686;28;20445;-55
2021/04/24 03:41:47;;;;;;;4.18;2.63;;;19.20;38.80;;;;;;5034828;28;20086;-53
2021/04/24 03:44:13;;;;;;;5.10;2.72;;;19.20;38.90;;;;;;5034914;28;20029;-53
2021/04/24 03:46:38;;;;;;;5.97;2.90;;;19.20;38.80;;;;;;5034165;28;20026;-51
2021/04/24 03:49:04;;;;;;;6.18;2.72;;;19.20;38.80;;;;;;5034286;28;20030;-50
2021/04/24 03:51:29;;;;;;;6.28;2.95;;;19.20;38.80;;;;;;5034478;28;20029;-51
2021/04/24 03:53:55;;;;;;;3.30;2.70;;;19.20;38.80;;;;;;5034426;28;20183;-51
2021/04/24 03:56:20;;;;;;;2.85;2.22;;;19.20;38.80;;;;;;5034441;28;20360;-54
2021/04/24 03:58:46;;;;;;;5.10;2.83;;;19.20;38.80;;;;;;5034554;28;20079;-54
2021/04/24 04:01:11;;;;;;;3.10;2.80;;;19.20;38.80;;;;;;5034006;28;20126;-54
2021/04/24 04:03:37;;;;;;;5.40;2.70;;;19.10;38.70;;;;;;5034200;28;20029;-52
2021/04/24 04:06:02;;;;;;;4.95;2.40;;;19.20;38.70;;;;;;5036995;28;20104;-53
2021/04/24 04:08:28;;;;;;;4.03;3.08;;;19.10;38.70;;;;;;5038550;28;20029;-53
2021/04/24 04:10:53;;;;;;;3.13;2.35;;;19.10;38.70;;;;;;5037915;28;20060;-50
2021/04/24 04:13:19;;;;;;;4.38;2.70;;;19.10;38.70;;;;;;5037885;28;20036;-54
2021/04/24 04:15:45;;;;;;;4.55;2.78;;;19.10;38.70;;;;;;5038140;28;20036;-49
2021/04/24 04:18:12;;;;;;;3.75;2.85;;;19.10;38.70;;;;;;5038108;28;20029;-54
2021/04/24 04:20:41;;;;;;;4.00;2.58;;;19.10;38.60;;;;;;5037754;28;20030;-51
2021/04/24 04:23:07;;;;;;;3.55;2.65;;;19.10;38.60;;;;;;5038090;28;20079;-53
2021/04/24 04:25:33;;;;;;;4.20;2.50;;;19.10;38.60;;;;;;5037994;28;20441;-55
2021/04/24 04:27:58;;;;;;;4.60;2.35;;;19.10;38.60;;;;;;5037887;28;20029;-50
2021/04/24 04:30:25;;;;;;;3.92;2.40;;;19.10;38.60;;;;;;5037741;28;20329;-54
2021/04/24 04:32:51;;;;;;;3.90;2.70;;;19.10;38.60;;;;;;5037841;28;20042;-55
2021/04/24 04:35:18;;;;;;;3.05;2.70;;;19.10;38.60;;;;;;5037499;28;20095;-52
2021/04/24 04:37:44;;;;;;;4.97;2.38;;;19.00;38.60;;;;;;5038113;28;20033;-51
2021/04/24 04:40:11;;;;;;;3.55;2.90;;;19.10;38.70;;;;;;5037852;28;20076;-51
2021/04/24 04:42:37;;;;;;;5.75;2.88;;;19.00;38.60;;;;;;5037862;28;20498;-56
2021/04/24 04:45:04;;;;;;;3.67;2.65;;;19.00;38.60;;;;;;5037424;28;20025;-53
2021/04/24 04:47:30;;;;;;;2.63;2.42;;;19.00;38.60;;;;;;5037421;28;20057;-55
2021/04/24 04:49:56;;;;;;;3.47;2.55;;;19.00;38.60;;;;;;5038160;28;20021;-54
2021/04/24 04:52:21;;;;;;;3.70;2.55;;;19.00;38.60;;;;;;5037625;28;20040;-52
2021/04/24 04:54:47;;;;;;;4.13;3.00;;;19.00;38.60;;;;;;5037693;28;20102;-55
2021/04/24 04:57:12;;;;;;;3.58;2.45;;;19.00;38.60;;;;;;5037488;28;20029;-51
2021/04/24 04:59:38;;;;;;;3.22;2.50;;;19.00;38.60;;;;;;5037460;28;20037;-54
2021/04/24 05:02:03;;;;;;;2.45;2.25;;;19.00;38.60;;;;;;5037698;28;20028;-56
2021/04/24 05:04:29;;;;;;;3.55;2.28;;;19.00;38.60;;;;;;5037150;28;20111;-55
2021/04/24 05:06:54;;;;;;;4.75;2.53;;;19.00;38.70;;;;;;5037220;28;20032;-51
2021/04/24 05:09:22;;;;;;;3.10;2.35;;;19.00;38.70;;;;;;5037324;28;20021;-49
2021/04/24 05:11:49;;;;;;;2.67;2.47;;;19.00;38.70;;;;;;5037477;28;20021;-56
2021/04/24 05:14:14;;;;;;;2.50;2.30;;;18.90;38.70;;;;;;5036912;28;20491;-51
2021/04/24 05:16:40;;;;;;;2.60;2.40;;;19.00;38.70;;;;;;5036415;28;20087;-53
2021/04/24 05:19:05;;;;;;;3.20;1.95;;;18.90;38.70;;;;;;5037039;28;20084;-51
2021/04/24 05:21:31;;;;;;;3.38;2.65;;;18.90;38.70;;;;;;5036647;28;20419;-54
2021/04/24 05:23:57;;;;;;;5.78;2.17;;;18.90;38.70;;;;;;5037428;28;20104;-52
2021/04/24 05:26:23;;;;;;;2.92;2.33;;;18.90;39.00;;;;;;5019276;28;20046;-54
2021/04/24 05:28:48;;;;;;;2.92;2.40;;;18.90;38.90;;;;;;5036550;28;20030;-50
2021/04/24 05:31:14;;;;;;;4.85;2.25;;;18.90;39.10;;;;;;5036315;28;20514;-53
2021/04/24 05:33:40;;;;;;;3.13;1.95;;;18.90;39.20;;;;;;5036444;28;20051;-54
2021/04/24 05:36:10;;;;;;;3.58;1.80;;;19.00;39.40;;;;;;5036676;28;20037;-55
2021/04/24 05:38:36;;;;;;;3.45;2.08;;;19.00;39.40;;;;;;5036663;28;20026;-52
2021/04/24 05:41:01;;;;;;;3.03;2.08;;;19.00;39.70;;;;;;5019350;28;20329;-55
2021/04/24 05:43:27;;;;;;;3.05;1.85;;;19.00;40.10;;;;;;5036434;28;20033;-53
2021/04/24 05:45:52;;;;;;;6.05;1.95;;;19.00;40.10;;;;;;5036123;28;20060;-51
2021/04/24 05:48:18;;;;;;;7.13;2.25;;;19.10;40.10;;;;;;5036399;28;20387;-57
2021/04/24 05:50:43;;;;;;;3.92;2.17;;;19.10;40.30;;;;;;5036475;28;20100;-55
2021/04/24 05:53:09;;;;;;;4.32;1.63;;;19.20;40.50;;;;;;5036133;28;20029;-55
2021/04/24 05:55:35;;;;;;;1.85;1.60;;;19.20;40.40;;;;;;5035894;28;20034;-52
2021/04/24 05:58:01;;;;;;;2.92;1.77;;;19.30;40.40;;;;;;5036598;28;20022;-53
2021/04/24 06:00:27;;;;;;;2.50;1.75;;;19.30;40.30;;;;;;5036439;28;20454;-53
2021/04/24 06:02:52;;;;;;;4.30;1.55;;;19.40;40.30;;;;;;5036643;28;20445;-52
2021/04/24 06:05:18;;;;;;;2.63;1.38;;;19.40;40.20;;;;;;5036053;28;20053;-53
2021/04/24 06:07:44;;;;;;;2.58;1.58;;;19.50;40.10;;;;;;5036154;28;20040;-51
2021/04/24 06:10:12;;;;;;;1.65;1.30;;;19.50;40.00;;;;;;5035943;28;20107;-53
2021/04/24 06:12:39;;;;;;;1.60;1.30;;;19.60;40.10;;;;;;5019031;28;20053;-54
2021/04/24 06:15:07;;;;;;;3.35;1.35;;;19.60;40.10;;;;;;5036222;28;20412;-52
2021/04/24 06:17:33;;;;;;;1.60;1.50;;;19.60;40.10;;;;;;5035670;28;20029;-51
2021/04/24 06:19:58;;;;;;;2.10;1.48;;;19.70;40.00;;;;;;5035552;28;20420;-53
2021/04/24 06:22:24;;;;;;;1.88;1.45;;;19.70;40.00;;;;;;5035501;28;20033;-54
2021/04/24 06:24:49;;;;;;;2.67;1.40;;;19.80;40.00;;;;;;5035427;28;20079;-55
2021/04/24 06:27:15;;;;;;;2.80;1.13;;;19.80;39.90;;;;;;5036259;28;20061;-55
2021/04/24 06:29:41;;;;;;;3.65;1.20;;;19.80;39.90;;;;;;5035578;28;20021;-55
2021/04/24 06:32:07;;;;;;;2.42;1.23;;;19.80;39.90;;;;;;5035478;28;20025;-49
2021/04/24 06:34:32;;;;;;;1.52;1.40;;;19.90;39.90;;;;;;5035724;28;20094;-54
2021/04/24 06:36:58;;;;;;;3.35;1.42;;;19.90;40.00;;;;;;5035273;28;20352;-47
2021/04/24 06:39:23;;;;;;;3.20;1.45;;;19.90;40.00;;;;;;5035553;28;20101;-53
2021/04/24 06:41:49;;;;;;;3.25;1.55;;;19.90;40.20;;;;;;5018227;28;20037;-55
2021/04/24 06:44:16;;;;;;;5.32;1.63;;;19.90;40.20;;;;;;5035475;28;20044;-53
2021/04/24 06:46:41;;;;;;;5.72;1.75;;;20.00;40.50;;;;;;5035003;28;20451;-55
2021/04/24 06:49:07;;;;;;;5.20;1.55;;;20.00;40.60;;;;;;5035604;28;20025;-50
2021/04/24 06:51:32;;;;;;;3.80;2.15;;;20.00;40.70;;;;;;5034700;28;20037;-52
2021/04/24 06:53:58;;;;;;;7.55;1.77;;;20.00;40.90;;;;;;5035130;28;20103;-51
2021/04/24 06:56:23;;;;;;;3.40;1.80;;;20.10;41.00;;;;;;5035163;28;20399;-50
2021/04/24 06:58:49;;;;;;;2.63;1.40;;;20.10;41.10;;;;;;5017739;28;20026;-51
2021/04/24 07:01:14;;;;;;;4.22;1.52;;;20.10;41.10;;;;;;5034856;28;20599;-54
2021/04/24 07:03:40;;;;;;;3.47;1.50;;;20.10;41.30;;;;;;5034909;28;20029;-55
2021/04/24 07:06:06;;;;;;;4.43;1.85;;;20.10;41.70;;;;;;5035160;28;20064;-52
2021/04/24 07:08:31;;;;;;;4.07;1.60;;;20.20;41.80;;;;;;5035250;28;20030;-50
2021/04/24 07:10:57;;;;;;;2.30;1.98;;;20.20;41.70;;;;;;5035087;28;20065;-51
2021/04/24 07:13:23;;;;;;;4.93;1.40;;;20.20;41.60;;;;;;5034567;28;20444;-50
2021/04/24 07:15:48;;;;;;;4.18;2.13;;;20.20;41.60;;;;;;5034702;28;20391;-52
2021/04/24 07:18:14;;;;;;;1.90;1.63;;;20.30;42.10;;;;;;5034984;28;20109;-51
2021/04/24 07:20:40;;;;;;;2.70;1.52;;;20.30;42.20;;;;;;5035219;28;20397;-55
2021/04/24 07:23:05;;;;;;;2.60;1.85;;;20.30;42.00;;;;;;5034806;28;20021;-52
2021/04/24 07:25:31;;;;;;;3.67;1.83;;;20.40;42.00;;;;;;5034336;28;20053;-54
2021/04/24 07:27:56;;;;;;;3.28;1.73;;;20.40;41.90;;;;;;5034675;28;20017;-53
2021/04/24 07:30:22;;;;;;;2.78;1.45;;;20.40;41.80;;;;;;5035276;28;20053;-55
2021/04/24 07:32:48;;;;;;;3.38;1.60;;;20.40;41.80;;;;;;5034953;28;20089;-55
2021/04/24 07:35:14;;;;;;;4.15;1.88;;;20.40;41.70;;;;;;5034733;28;20448;-53
2021/04/24 07:37:40;;;;;;;5.55;1.45;;;20.40;41.70;;;;;;5035050;28;20029;-54
2021/04/24 07:40:06;;;;;;;1.98;1.13;;;20.40;41.70;;;;;;5035409;28;20108;-51
2021/04/24 07:42:32;;;;;;;3.13;1.33;;;20.40;41.60;;;;;;5038860;28;20431;-49
2021/04/24 07:44:57;;;;;;;2.95;1.75;;;20.50;41.60;;;;;;5039088;28;20109;-54
2021/04/24 07:47:23;;;;;;;1.40;1.30;;;20.50;41.60;;;;;;5038931;28;20032;-54
2021/04/24 07:49:48;;;;;;;3.00;1.60;;;20.50;41.60;;;;;;5038937;28;20470;-49
2021/04/24 07:52:15;;;;;;;4.78;1.90;;;20.50;41.60;;;;;;5038334;28;20026;-48
2021/04/24 07:54:42;;;;;;;4.40;1.98;;;20.50;41.50;;;;;;5038484;28;20025;-49
2021/04/24 07:57:09;;;;;;;3.90;1.65;;;20.50;41.30;;;;;;5038827;28;20049;-50
2021/04/24 07:59:35;;;;;;;1.63;1.10;;;20.50;41.20;;;;;;5038469;28;20037;-49
2021/04/24 08:02:01;;;;;;;4.15;1.40;;;20.50;41.10;;;;;;5038414;28;20094;-52
2021/04/24 08:04:26;;;;;;;3.42;1.48;;;20.50;41.10;;;;;;5038497;28;20026;-48
2021/04/24 08:06:52;;;;;;;1.40;1.27;;;20.50;41.00;;;;;;5038963;28;20025;-50
2021/04/24 08:09:17;;;;;;;2.70;1.48;;;20.50;41.00;;;;;;5037718;28;20025;-50
2021/04/24 08:11:43;;;;;;;3.47;1.33;;;20.60;41.00;;;;;;5038271;28;20057;-50
2021/04/24 08:14:08;;;;;;;2.03;1.42;;;20.60;41.70;;;;;;5038435;28;20087;-48
2021/04/24 08:16:34;;;;;;;3.10;1.20;;;20.60;40.90;;;;;;5038095;28;20025;-50
2021/04/24 08:19:00;;;;;;;2.00;1.08;;;20.60;41.00;;;;;;5037970;28;20037;-49
2021/04/24 08:21:25;;;;;;;5.85;1.38;;;20.60;40.90;;;;;;5037776;28;20026;-48
2021/04/24 08:23:58;;;;;;;1.55;1.00;;;20.70;40.90;;;;;;5020446;28;20112;-47
2021/04/24 08:26:25;;;;;;;1.23;0.93;;;20.70;40.90;;;;;;5037720;28;20045;-47
2021/04/24 08:28:51;;;;;;;1.50;1.00;;;20.70;40.80;;;;;;5037861;28;20033;-50
2021/04/24 08:31:17;;;;;;;3.17;1.25;;;20.70;40.80;;;;;;5037838;28;20068;-51
2021/04/24 08:33:42;;;;;;;1.70;1.20;;;20.70;40.80;;;;;;5037628;28;20037;-47
2021/04/24 08:36:08;;;;;;;2.22;1.35;;;20.70;40.80;;;;;;5020291;28;20037;-47
2021/04/24 08:38:33;;;;;;;1.15;1.00;;;20.80;40.80;;;;;;5037426;28;20036;-47
2021/04/24 08:41:01;;;;;;;1.90;1.30;;;20.80;40.80;;;;;;5037847;28;20033;-47
2021/04/24 08:43:27;;;;;;;2.05;1.25;;;20.80;40.70;;;;;;5038196;28;20025;-48
2021/04/24 08:45:55;;;;;;;2.85;1.20;;;20.80;40.70;;;;;;5037311;28;20021;-47
2021/04/24 08:48:20;;;;;;;2.70;1.27;;;20.80;40.60;;;;;;5020391;28;20344;-49
2021/04/24 08:50:47;;;;;;;1.92;1.10;;;20.90;40.70;;;;;;5036875;28;20022;-49
2021/04/24 08:53:16;;;;;;;3.38;1.38;;;20.90;40.60;;;;;;5036820;28;20535;-52
2021/04/24 08:55:42;;;;;;;0.98;0.90;;;20.90;40.60;;;;;;5037348;28;20083;-49
2021/04/24 08:58:07;;;;;;;1.48;1.00;;;20.90;40.60;;;;;;5037156;28;20420;-52
2021/04/24 09:00:37;;;;;;;3.83;1.27;;;20.90;40.50;;;;;;5037747;28;20030;-49
2021/04/24 09:03:07;;;;;;;2.20;1.40;;;20.90;40.40;;;;;;5037563;28;20026;-52
2021/04/24 09:05:34;;;;;;;2.60;1.50;;;20.90;40.10;;;;;;5037283;28;20029;-50
2021/04/24 09:08:03;;;;;;;2.10;1.23;;;20.90;39.80;;;;;;5037102;28;20064;-48
2021/04/24 09:10:33;;;;;;;2.78;0.98;;;21.00;39.90;;;;;;5037570;28;20025;-49
2021/04/24 09:12:59;;;;;;;3.25;1.10;;;21.00;39.80;;;;;;5036983;28;20029;-50
2021/04/24 09:15:26;;;;;;;2.55;1.17;;;21.00;39.90;;;;;;5036980;28;20137;-54
2021/04/24 09:17:57;;;;;;;3.20;1.10;;;21.00;39.80;;;;;;5036734;28;20041;-50
2021/04/24 09:20:26;;;;;;;3.92;1.20;;;21.10;39.80;;;;;;5036391;28;20029;-50
2021/04/24 09:23:07;;;;;;;2.30;1.10;;;21.10;39.70;;;;;;5036934;28;20061;-54
2021/04/24 09:25:39;;;;;;;2.95;1.10;;;21.10;39.60;;;;;;5037023;28;20380;-52
2021/04/24 09:28:07;;;;;;;2.28;1.23;;;21.10;39.70;;;;;;5036717;28;20013;-51
2021/04/24 09:30:36;;;;;;;3.92;1.20;;;21.10;39.60;;;;;;5036592;28;20120;-48
2021/04/24 09:33:12;;;;;;;2.85;1.00;;;21.20;39.60;;;;;;5036949;28;20041;-50
2021/04/24 09:35:41;;;;;;;3.38;1.02;;;21.20;39.60;;;;;;5036644;28;20336;-52
2021/04/24 09:38:08;;;;;;;10.90;1.70;;;21.20;39.30;;;;;;5036232;28;20049;-57
2021/04/24 09:40:34;;;;;;;2.88;1.30;;;21.20;38.90;;;;;;5036341;28;20387;-56
2021/04/24 09:43:07;;;;;;;3.60;1.10;;;21.20;38.90;;;;;;5036535;28;20098;-56
2021/04/24 09:45:40;;;;;;;6.28;1.02;;;21.20;38.90;;;;;;5036983;28;20116;-52
2021/04/24 09:48:19;;;;;;;6.22;1.40;;;21.30;39.00;;;;;;5036578;28;20021;-56
2021/04/24 09:50:44;;;;;;;3.65;1.00;;;21.30;39.20;;;;;;5036679;28;20022;-60
2021/04/24 09:53:21;;;;;;;4.80;1.38;;;21.30;39.30;;;;;;5036226;28;20056;-53
2021/04/24 09:55:49;;;;;;;4.65;1.23;;;21.30;39.20;;;;;;5036021;28;20037;-55
2021/04/24 09:58:28;;;;;;;8.50;1.88;;;21.30;39.20;;;;;;5036339;28;20021;-55
2021/04/24 10:00:57;;;;;;;2.17;1.25;;;21.40;39.20;;;;;;5036158;28;20033;-55
2021/04/24 10:03:39;;;;;;;2.47;1.00;;;21.40;38.80;;;;;;5035112;28;20032;-53
2021/04/24 10:06:24;;;;;;;1.35;0.80;;;21.40;38.60;;;;;;5035990;28;20087;-56
2021/04/24 10:08:51;;;;;;;4.47;1.30;;;21.40;38.50;;;;;;5036420;28;20171;-54
2021/04/24 10:11:27;;;;;;;5.03;1.42;;;21.40;37.80;;;;;;5036131;28;20021;-51
2021/04/24 10:13:53;;;;;;;1.50;1.00;;;21.40;37.30;;;;;;5036020;28;20183;-56
2021/04/24 10:16:43;;;;;;;2.72;1.05;;;21.40;37.10;;;;;;5035854;28;20096;-54
2021/04/24 10:19:17;;;;;;;3.15;1.00;;;21.40;37.40;;;;;;5035866;28;20056;-52
2021/04/24 10:21:44;;;;;;;3.40;1.10;;;21.40;37.60;;;;;;5035749;28;20013;-57
2021/04/24 10:24:11;;;;;;;4.30;1.08;;;21.40;37.60;;;;;;5035424;28;20436;-57
2021/04/24 10:26:37;;;;;;;5.80;1.40;;;21.40;37.70;;;;;;5036134;28;20171;-53
2021/04/24 10:29:04;;;;;;;4.00;1.17;;;21.40;37.50;;;;;;5035401;28;20029;-56
2021/04/24 10:31:32;;;;;;;5.15;1.00;;;21.40;37.70;;;;;;5035577;28;20022;-55
2021/04/24 10:33:59;;;;;;;1.95;1.25;;;21.50;37.80;;;;;;5035484;28;20029;-56
2021/04/24 10:36:25;;;;;;;1.00;0.80;;;21.50;37.90;;;;;;5035265;28;20444;-54
2021/04/24 10:38:52;;;;;;;1.50;0.90;;;21.50;38.00;;;;;;5035176;28;20440;-57
2021/04/24 10:41:38;;;;;;;3.15;1.00;;;21.50;38.10;;;;;;5035589;28;20025;-57
2021/04/24 10:44:14;;;;;;;3.30;1.05;;;21.60;38.00;;;;;;5035648;28;20112;-58
2021/04/24 10:46:47;;;;;;;4.43;1.38;;;21.50;37.80;;;;;;5017607;28;20348;-55
2021/04/24 10:49:24;;;;;;;5.28;1.25;;;21.60;37.70;;;;;;5035501;28;20025;-56
2021/04/24 10:52:07;;;;;;;3.63;1.10;;;21.50;37.40;;;;;;5035334;28;20096;-57
2021/04/24 10:54:39;;;;;;;4.22;0.80;;;21.50;37.50;;;;;;5034950;28;20456;-55
2021/04/24 10:57:42;;;;;;;3.28;1.08;;;21.50;37.70;;;;;;5035179;28;20072;-55
2021/04/24 11:00:14;;;;;;;2.30;0.80;;;21.50;37.70;;;;;;5035332;28;20032;-51
2021/04/24 11:02:42;;;;;;;3.75;1.08;;;21.50;37.60;;;;;;5017557;28;20109;-53
2021/04/24 11:05:20;;;;;;;2.65;0.80;;;21.50;37.60;;;;;;5034965;28;20034;-55
2021/04/24 11:07:45;;;;;;;2.08;0.82;;;21.50;37.50;;;;;;5034731;28;20492;-54
2021/04/24 11:10:11;;;;;;;2.10;1.17;;;21.50;37.30;;;;;;5035524;28;20017;-50
2021/04/24 11:12:48;;;;;;;1.15;0.65;;;21.50;37.40;;;;;;5035002;28;20034;-52
2021/04/24 11:15:16;;;;;;;1.48;0.82;;;21.60;37.40;;;;;;5034623;28;20098;-49
2021/04/24 11:17:43;;;;;;;0.95;0.80;;;21.50;37.40;;;;;;5035423;28;20022;-53
2021/04/24 11:20:10;;;;;;;1.30;0.73;;;21.50;37.40;;;;;;5034711;28;20344;-52
2021/04/24 11:22:41;;;;;;;1.10;0.80;;;21.50;37.40;;;;;;5034813;28;20032;-55
2021/04/24 11:25:20;;;;;;;1.35;0.80;;;21.60;37.30;;;;;;5034371;28;20083;-56
2021/04/24 11:28:08;;;;;;;3.17;1.33;;;21.50;36.90;;;;;;5034662;28;20029;-56
2021/04/24 11:31:06;;;;;;;1.42;0.77;;;21.50;36.70;;;;;;5017394;28;20583;-55
2021/04/24 11:33:47;;;;;;;2.33;1.20;;;21.50;36.80;;;;;;5035028;28;20464;-53
2021/04/24 11:36:12;;;;;;;2.08;1.40;;;21.40;35.80;;;;;;5034369;28;20041;-53
2021/04/24 11:39:05;;;;;;;2.10;1.40;;;21.40;36.10;;;;;;5034944;28;20037;-52
2021/04/24 11:41:38;;;;;;;2.42;1.85;;;21.40;36.30;;;;;;5034505;28;20026;-49
2021/04/24 11:44:33;;;;;;;4.30;2.20;;;21.30;35.20;;;;;;5034525;28;20026;-50
2021/04/24 11:46:58;;;;;;;1.95;1.65;;;21.20;34.70;;;;;;5034576;28;20460;-49
2021/04/24 11:49:27;;;;;;;3.92;1.52;;;21.20;35.50;;;;;;5034881;28;20037;-54
2021/04/24 11:51:56;;;;;;;1.83;1.60;;;21.10;35.20;;;;;;5034720;28;20037;-52
2021/04/24 11:54:32;;;;;;;3.10;1.80;;;21.10;35.40;;;;;;5034864;28;20334;-53
2021/04/24 11:57:00;;;;;;;1.95;1.50;;;21.10;34.40;;;;;;5034556;28;20045;-53
2021/04/24 11:59:28;;;;;;;2.30;1.60;;;21.00;35.10;;;;;;5034471;28;20025;-54
2021/04/24 12:02:04;;;;;;;2.58;1.95;;;21.00;35.00;;;;;;5034046;28;20021;-49
2021/04/24 12:04:36;;;;;;;3.08;1.58;;;21.00;35.50;;;;;;5034370;28;20425;-49
2021/04/24 12:07:06;;;;;;;2.38;1.08;;;21.00;35.50;;;;;;5034296;28;20033;-52
2021/04/24 12:09:54;;;;;;;5.20;1.40;;;21.00;36.30;;;;;;5034368;28;20029;-55
2021/04/24 12:12:37;;;;;;;6.05;1.98;;;21.00;36.30;;;;;;5034535;28;20115;-51
2021/04/24 12:15:10;;;;;;;2.15;1.25;;;21.00;35.90;;;;;;5034391;28;20112;-49
2021/04/24 12:18:06;;;;;;;3.05;1.40;;;21.00;36.10;;;;;;5033827;28;20460;-55
2021/04/24 12:20:43;;;;;;;5.05;1.40;;;21.10;36.30;;;;;;5034072;28;20041;-55
2021/04/24 12:23:14;;;;;;;3.28;1.77;;;21.10;36.30;;;;;;5033976;28;20494;-52
2021/04/24 12:25:46;;;;;;;4.47;1.75;;;21.10;36.10;;;;;;5033131;28;20341;-57
2021/04/24 12:28:12;;;;;;;6.00;1.70;;;21.10;36.30;;;;;;5017798;28;20026;-56
2021/04/24 12:30:43;;;;;;;4.40;1.60;;;21.10;36.30;;;;;;5018210;28;20022;-58
2021/04/24 12:33:11;;;;;;;5.25;2.15;;;21.10;36.30;;;;;;5018027;28;20021;-55
2021/04/24 12:35:43;;;;;;;2.95;1.55;;;21.10;36.10;;;;;;5018301;28;20034;-58
2021/04/24 12:38:11;;;;;;;3.42;1.40;;;21.10;36.10;;;;;;5017924;28;20025;-55
2021/04/24 12:40:45;;;;;;;2.17;1.17;;;21.10;36.10;;;;;;5017802;28;20026;-58
2021/04/24 12:43:12;;;;;;;;;;;21.20;36.20;;;;;;5018299;28;20034;-58
2021/04/24 12:45:43;;;;;;;2.40;1.40;;;21.10;36.10;;;;;;5018198;28;19905;-56
2021/04/24 12:48:14;;;;;;;3.35;1.30;;;21.10;36.00;;;;;;5018035;28;20054;-57
2021/04/24 12:50:41;;;;;;;7.00;1.58;;;21.10;35.90;;;;;;5017462;28;20033;-59
2021/04/24 12:53:31;;;;;;;2.10;1.40;;;21.10;35.80;;;;;;5017567;28;20088;-58